^^
LKKV - Karlovy Vary, Czech Republic
Entfernung von Station: O 36km
Aktualisierung: 26.05.2017 15:00
wolkig
wolkig
 Wind von veränderlich
Wind: veränderlich 7 km/h
Temperatur: 20°C
Taupunkt: 9°C
Luftfeuchte: 49%
Luftdruck: 1021 hPa
Wolken: wolkig
Sicht: 10 km
Wolken Details: wolkig 1402 m
2017/05/26 13:00 LKKV 261300Z VRB04KT 9999 SCT046 20/09 Q1021
EDQM - Hof, Germany
Entfernung von Station: W 40km
Aktualisierung: 26.05.2017 14:50
Klar
Klar
 Wind von NNO
Wind: NNO 13 km/h
Temperatur: 20°C
Taupunkt: 9°C
Luftfeuchte: 49%
Luftdruck: 1022 hPa
Zusammenfassung: Klar
Sicht: mehr als 10 km
2017/05/26 12:50 EDQM 261250Z 02007KT 330V050 CAVOK 20/09 Q1022
 
ETIC - Grafenwoehr, Germany
Entfernung von Station: SSW 72km
Aktualisierung: 26.05.2017 14:58
teils wolkig
teils wolkig
 Wind von calm
Wind: Windstill
Temperatur: 23°C
Taupunkt: 10°C
Luftfeuchte: 44%
Luftdruck: 1020.7 hPa
Wolken: teils wolkig
Sicht: 10 km
Wolken Details: teils wolkig 1676 m
2017/05/26 12:58 ETIC 261258Z AUTO 00000KT 9999 FEW055 23/10 A3014 RMK AO2 SLP204
EDAC - Altenburg-Nobitz, Germany
Entfernung von Station: N 80km
Aktualisierung: 23.05.2017 19:20
nicht aktuell
Klar
Klar
 Wind von W
Wind: W 9 km/h
Zusammenfassung: Klar
Sicht: mehr als 10 km
2017/05/23 17:20 EDAC 231720Z 28005KT CAVOK 22/// Q1015
 
LKLN - Plzen Line, Czech Republic
Entfernung von Station: SO 88km
Aktualisierung: 26.05.2017 15:00
wolkig
wolkig
 Wind von veränderlich
Wind: veränderlich 9 km/h
Temperatur: 23°C
Taupunkt: 11°C
Luftfeuchte: 47%
Luftdruck: 1021 hPa
Wolken: wolkig
Sicht: 10 km
Wolken Details: wolkig 1676 m
2017/05/26 13:00 LKLN 261300Z AUTO VRB05KT 9999 SCT055 23/11 Q1021
ETIH - Hohenfels (usa-A, Germany
Entfernung von Station: SSW 124km
Aktualisierung: 26.05.2017 14:58
Klar
Klar
 Wind von O
Wind: O 11 km/h
Temperatur: 22°C
Taupunkt: 9°C
Luftfeuchte: 44%
Luftdruck: 1021.3 hPa
Wolken: Klar
Sicht: 10 km
2017/05/26 12:58 ETIH 261258Z AUTO 08006KT 9999 CLR 22/09 A3016 RMK AO2 SLP210
 
EDDE - Erfurt/Bindersleben, Germany
Entfernung von Station: NW 129km
Aktualisierung: 26.05.2017 14:50
wolkig
wolkig
 Wind von NNW
Wind: NNW 7 km/h
Temperatur: 23°C
Taupunkt: 13°C
Luftfeuchte: 53%
Luftdruck: 1022 hPa
Wolken: wolkig
Sicht: 10 km
Wolken Details: wolkig 1280 m
2017/05/26 12:50 EDDE 261250Z 33004KT 260V040 9999 SCT042 23/13 Q1022 NOSIG
EDDP - Leipzig/Schkeudidtz, Germany
Entfernung von Station: N 129km
Aktualisierung: 26.05.2017 14:50
teils wolkig
teils wolkig
 Wind von NNW
Wind: NNW 17 km/h
Temperatur: 22°C
Taupunkt: 11°C
Luftfeuchte: 50%
Luftdruck: 1021 hPa
Wolken: teils wolkig
Sicht: 10 km
Wolken Details: teils wolkig 1250 m
2017/05/26 12:50 EDDP 261250Z 34009KT 300V020 9999 FEW041 22/11 Q1021 NOSIG
 
EDDN - Nuernberg, Germany
Entfernung von Station: SW 130km
Aktualisierung: 26.05.2017 14:50
Klar
Klar
 Wind von WSW
Wind: WSW 9 km/h
Temperatur: 23°C
Taupunkt: 11°C
Luftfeuchte: 47%
Luftdruck: 1021 hPa
Zusammenfassung: Klar
Sicht: mehr als 10 km
2017/05/26 12:50 EDDN 261250Z 24005KT 180V320 CAVOK 23/11 Q1021 NOSIG
LKPR - Prague/Ruzyne, Czech Republic
Entfernung von Station: O 133km
Aktualisierung: 26.05.2017 15:00
wolkig
wolkig
 Wind von NNW
Wind: NNW 15 km/h
Temperatur: 21°C
Taupunkt: 11°C
Luftfeuchte: 53%
Luftdruck: 1021 hPa
Wolken: wolkig
Sicht: 10 km
Wolken Details: wolkig 1280 m
2017/05/26 13:00 LKPR 261300Z 34008KT 9999 SCT042 21/11 Q1021 NOSIG
 
EDDC - Dresden/Klotzsche, Germany
Entfernung von Station: NO 134km
Aktualisierung: 26.05.2017 14:50
wolkig
wolkig
 Wind von NW
Wind: NW 15 km/h
Temperatur: 21°C
Taupunkt: 11°C
Luftfeuchte: 53%
Luftdruck: 1021 hPa
Wolken: wolkig
Sicht: 10 km
Wolken Details: wolkig 1219 m
2017/05/26 12:50 EDDC 261250Z 32008KT 280V360 9999 SCT040 21/11 Q1021 NOSIG
Besucherstatistik
Besucher gesamt: 626.821
Besucher heute: 794
Besucher gestern: 1.390
Besucher pro Tag: 817,45
gerade online: 23
max. online: 156
Seitenaufrufe diese Seite: 2.054
counter Statistiken